createdAt,value
2023-05-16T00:01:00.933Z,10.60
2023-05-16T00:04:03.443Z,11.93
2023-05-16T00:07:05.505Z,10.50
2023-05-16T00:10:07.922Z,10.68
2023-05-16T00:13:09.348Z,13.93
2023-05-16T00:16:13.886Z,10.30
2023-05-16T00:19:15.351Z,12.55
2023-05-16T00:22:17.025Z,10.65
2023-05-16T00:25:18.540Z,14.07
2023-05-16T00:28:19.918Z,13.40
2023-05-16T00:31:22.067Z,11.07
2023-05-16T00:34:23.468Z,14.38
2023-05-16T00:37:24.995Z,14.18
2023-05-16T00:40:27.749Z,13.18
2023-05-16T00:43:29.184Z,12.90
2023-05-16T00:46:31.273Z,14.27
2023-05-16T00:49:32.686Z,12.88
2023-05-16T00:52:35.488Z,14.38
2023-05-16T00:55:37.555Z,15.50
2023-05-16T00:58:39.120Z,14.95
2023-05-16T01:01:41.394Z,18.17
2023-05-16T01:04:43.606Z,18.15
2023-05-16T01:07:45.053Z,16.15
2023-05-16T01:10:53.213Z,17.50
2023-05-16T01:14:09.129Z,16.13
2023-05-16T01:17:20.166Z,15.93
2023-05-16T01:20:32.795Z,15.45
2023-05-16T01:23:47.021Z,17.75
2023-05-16T01:26:49.929Z,16.23
2023-05-16T01:29:55.564Z,13.88
2023-05-16T01:32:56.934Z,14.43
2023-05-16T01:36:06.536Z,16.63
2023-05-16T01:39:15.230Z,16.58
2023-05-16T01:42:21.035Z,15.00
2023-05-16T01:45:27.963Z,17.08
2023-05-16T01:48:35.911Z,15.03
2023-05-16T01:51:40.957Z,18.45
2023-05-16T01:54:45.375Z,15.25
2023-05-16T01:57:49.785Z,14.20
2023-05-16T02:00:52.843Z,14.45
2023-05-16T02:03:54.461Z,14.57
2023-05-16T02:06:56.687Z,14.82
2023-05-16T02:09:58.084Z,16.40
2023-05-16T02:13:00.032Z,17.08
2023-05-16T02:16:01.518Z,16.20
2023-05-16T02:19:02.814Z,15.57
2023-05-16T02:22:04.610Z,17.80
2023-05-16T02:25:06.915Z,14.93
2023-05-16T02:28:08.876Z,17.98
2023-05-16T02:31:10.374Z,18.67
2023-05-16T02:34:11.741Z,17.40
2023-05-16T02:37:13.431Z,21.10
2023-05-16T02:40:15.137Z,16.42
2023-05-16T02:43:17.199Z,17.80
2023-05-16T02:46:23.304Z,20.42
2023-05-16T02:49:24.690Z,18.50
2023-05-16T02:52:26.188Z,18.85
2023-05-16T02:55:27.916Z,17.92
2023-05-16T02:58:29.902Z,19.63
2023-05-16T03:01:31.325Z,17.38
2023-05-16T03:04:32.815Z,16.00
2023-05-16T03:07:34.260Z,19.25
2023-05-16T03:10:35.627Z,16.33
2023-05-16T03:13:37.678Z,15.95
2023-05-16T03:16:41.046Z,17.67
2023-05-16T03:19:42.373Z,17.50
2023-05-16T03:22:44.589Z,17.52
2023-05-16T03:25:46.009Z,17.50
2023-05-16T03:28:48.179Z,15.50
2023-05-16T03:31:49.678Z,16.63
2023-05-16T03:34:51.860Z,17.13
2023-05-16T03:37:53.439Z,21.02
2023-05-16T03:40:54.723Z,18.52
2023-05-16T03:43:56.781Z,17.40
2023-05-16T03:46:58.223Z,20.38
2023-05-16T03:49:59.614Z,19.80
2023-05-16T03:53:01.019Z,19.88
2023-05-16T03:56:03.314Z,21.05
2023-05-16T03:59:05.378Z,20.50
2023-05-16T04:02:07.405Z,17.52
2023-05-16T04:05:09.722Z,19.80
2023-05-16T04:08:11.221Z,20.17
2023-05-16T04:11:12.525Z,19.45
2023-05-16T04:14:14.906Z,20.20
2023-05-16T04:17:16.188Z,18.92
2023-05-16T04:20:17.640Z,19.13
2023-05-16T04:23:19.076Z,19.38
2023-05-16T04:26:21.780Z,17.95
2023-05-16T04:29:23.841Z,18.02
2023-05-16T04:32:25.318Z,20.55
2023-05-16T04:35:28.052Z,19.50
2023-05-16T04:38:29.656Z,18.92
2023-05-16T04:41:31.136Z,18.35
2023-05-16T04:44:33.823Z,19.30
2023-05-16T04:47:36.026Z,17.83
2023-05-16T04:50:37.452Z,20.77
2023-05-16T04:53:38.717Z,15.88
2023-05-16T04:56:40.094Z,19.17
2023-05-16T04:59:42.314Z,17.33
2023-05-16T05:02:44.022Z,17.23
2023-05-16T05:05:45.744Z,20.88
2023-05-16T05:08:47.256Z,18.67
2023-05-16T05:11:48.568Z,16.33
2023-05-16T05:14:50.714Z,15.52
2023-05-16T05:17:52.257Z,13.23
2023-05-16T05:20:53.892Z,14.63
2023-05-16T05:23:55.194Z,15.13
2023-05-16T05:26:57.143Z,14.83
2023-05-16T05:29:59.178Z,16.45
2023-05-16T05:33:00.648Z,16.83
2023-05-16T05:36:03.973Z,14.82
2023-05-16T05:39:06.201Z,17.80
2023-05-16T05:42:07.784Z,17.97
2023-05-16T05:45:11.091Z,15.98
2023-05-16T05:48:12.701Z,15.32
2023-05-16T05:51:14.356Z,13.75
2023-05-16T05:54:15.751Z,15.10
2023-05-16T05:57:17.112Z,11.73
2023-05-16T06:00:19.589Z,16.25
2023-05-16T06:03:20.952Z,11.73
2023-05-16T06:06:22.437Z,15.88
2023-05-16T06:09:23.745Z,13.20
2023-05-16T06:12:25.140Z,14.77
2023-05-16T06:15:27.351Z,12.20
2023-05-16T06:18:29.199Z,12.65
2023-05-16T06:21:30.544Z,10.20
2023-05-16T06:24:31.904Z,12.53
2023-05-16T06:27:33.367Z,13.30
2023-05-16T06:30:35.532Z,12.23
2023-05-16T06:33:36.810Z,12.63
2023-05-16T06:36:38.352Z,10.38
2023-05-16T06:39:39.653Z,13.37
2023-05-16T06:42:41.129Z,9.60
2023-05-16T06:45:44.436Z,11.63
2023-05-16T06:48:45.765Z,14.27
2023-05-16T06:51:47.091Z,8.65
2023-05-16T06:54:48.454Z,9.43
2023-05-16T06:57:49.829Z,9.77
2023-05-16T07:00:51.960Z,9.15
2023-05-16T07:03:53.672Z,9.93
2023-05-16T07:06:55.243Z,9.50
2023-05-16T07:09:56.564Z,8.53
2023-05-16T07:12:58.091Z,7.87
2023-05-16T07:16:00.286Z,8.38
2023-05-16T07:19:01.912Z,7.97
2023-05-16T07:22:03.658Z,9.13
2023-05-16T07:25:06.155Z,7.97
2023-05-16T07:28:07.590Z,7.30
2023-05-16T07:31:09.673Z,7.20
2023-05-16T07:34:11.474Z,8.13
2023-05-16T07:37:13.186Z,7.93
2023-05-16T07:40:14.567Z,8.50
2023-05-16T07:43:16.026Z,6.83
2023-05-16T07:46:18.043Z,7.38
2023-05-16T07:49:19.504Z,8.38
2023-05-16T07:52:20.844Z,6.38
2023-05-16T07:55:22.754Z,8.70
2023-05-16T07:58:24.285Z,7.60
2023-05-16T08:01:26.397Z,5.40
2023-05-16T08:04:28.466Z,5.80
2023-05-16T08:07:30.853Z,6.75
2023-05-16T08:10:32.427Z,6.77
2023-05-16T08:13:33.932Z,6.83
2023-05-16T08:16:36.279Z,5.53
2023-05-16T08:19:37.838Z,5.68
2023-05-16T08:22:39.336Z,6.18
2023-05-16T08:25:40.680Z,5.63
2023-05-16T08:28:42.666Z,6.47
2023-05-16T08:31:44.776Z,5.65
2023-05-16T08:34:46.316Z,6.07
2023-05-16T08:37:47.861Z,4.70
2023-05-16T08:40:49.240Z,6.90
2023-05-16T08:43:50.847Z,6.47
2023-05-16T08:46:54.390Z,4.50
2023-05-16T08:49:57.822Z,4.70
2023-05-16T08:53:06.592Z,4.75
2023-05-16T08:56:09.605Z,4.73
2023-05-16T08:59:11.913Z,4.73
2023-05-16T09:02:14.106Z,3.28
2023-05-16T09:05:16.855Z,37.42
2023-05-16T09:08:19.607Z,9.60
2023-05-16T09:11:21.295Z,5.23
2023-05-16T09:14:22.835Z,5.27
2023-05-16T09:17:38.684Z,6.43
2023-05-16T09:20:46.381Z,8.25
2023-05-16T09:23:49.172Z,5.05
2023-05-16T09:26:50.647Z,4.67
2023-05-16T09:29:51.992Z,5.87
2023-05-16T09:32:54.184Z,5.93
2023-05-16T09:35:57.111Z,7.20
2023-05-16T09:38:58.687Z,5.80
2023-05-16T09:42:00.138Z,5.27
2023-05-16T09:45:04.671Z,5.37
2023-05-16T09:48:08.377Z,6.13
2023-05-16T09:51:12.409Z,20.33
2023-05-16T09:54:13.936Z,7.47
2023-05-16T09:57:18.321Z,16.83
2023-05-16T10:00:20.099Z,13.90
2023-05-16T10:03:23.024Z,9.85
2023-05-16T10:06:25.658Z,6.75
2023-05-16T10:09:28.142Z,10.18
2023-05-16T10:12:31.421Z,10.03
2023-05-16T10:15:33.938Z,6.30
2023-05-16T10:18:37.852Z,5.65
2023-05-16T10:21:45.352Z,8.00
2023-05-16T10:24:51.650Z,6.35
2023-05-16T10:27:54.636Z,6.63
2023-05-16T10:30:56.895Z,7.57
2023-05-16T10:33:59.594Z,9.88
2023-05-16T10:37:01.807Z,9.75
2023-05-16T10:40:05.116Z,5.90
2023-05-16T10:43:08.132Z,8.77
2023-05-16T10:46:11.044Z,4.30
2023-05-16T10:49:24.041Z,8.57
2023-05-16T10:52:33.366Z,6.32
2023-05-16T10:55:36.062Z,7.38
2023-05-16T10:58:44.711Z,5.70
2023-05-16T11:01:52.592Z,7.20
2023-05-16T11:04:56.321Z,6.32
2023-05-16T11:08:04.263Z,7.03
2023-05-16T11:11:38.967Z,6.47
2023-05-16T11:14:42.729Z,7.17
2023-05-16T11:17:46.091Z,6.97
2023-05-16T11:20:52.103Z,7.68
2023-05-16T11:24:27.019Z,5.65
2023-05-16T11:27:30.245Z,6.35
2023-05-16T11:30:32.423Z,7.03
2023-05-16T11:33:35.622Z,6.20
2023-05-16T11:36:39.740Z,12.57
2023-05-16T11:39:41.333Z,8.43
2023-05-16T11:42:44.653Z,8.00
2023-05-16T11:45:46.740Z,6.73
2023-05-16T11:48:48.627Z,8.70
2023-05-16T11:51:53.814Z,5.18
2023-05-16T11:54:57.289Z,7.95
2023-05-16T11:57:59.245Z,6.47
2023-05-16T12:01:04.244Z,7.73
2023-05-16T12:04:09.096Z,6.17
2023-05-16T12:07:11.259Z,6.57
2023-05-16T12:10:14.328Z,6.22
2023-05-16T12:13:16.767Z,4.30
2023-05-16T12:16:18.725Z,6.53
2023-05-16T12:19:21.337Z,5.87
2023-05-16T12:22:25.546Z,6.55
2023-05-16T12:25:29.221Z,6.13
2023-05-16T12:28:33.349Z,7.82
2023-05-16T12:31:37.326Z,9.90
2023-05-16T12:34:38.718Z,5.40
2023-05-16T12:37:43.453Z,7.57
2023-05-16T12:40:46.100Z,7.78
2023-05-16T12:43:47.861Z,5.30
2023-05-16T12:46:51.226Z,6.67
2023-05-16T12:49:53.641Z,5.67
2023-05-16T12:53:00.910Z,5.53
2023-05-16T12:56:02.327Z,5.95
2023-05-16T12:59:03.642Z,5.80
2023-05-16T13:02:05.434Z,6.13
2023-05-16T13:05:07.444Z,5.75
2023-05-16T13:08:09.458Z,6.30
2023-05-16T13:11:10.835Z,7.10
2023-05-16T13:14:12.238Z,6.37
2023-05-16T13:17:13.556Z,5.45
2023-05-16T13:20:15.530Z,6.07
2023-05-16T13:23:17.755Z,8.35
2023-05-16T13:26:19.088Z,5.78
2023-05-16T13:29:20.659Z,5.23
2023-05-16T13:32:22.393Z,5.05
2023-05-16T13:35:23.730Z,4.47
2023-05-16T13:38:25.816Z,3.75
2023-05-16T13:41:27.143Z,4.32
2023-05-16T13:44:28.633Z,4.70
2023-05-16T13:47:30.468Z,5.15
2023-05-16T13:50:33.824Z,6.38
2023-05-16T13:53:36.286Z,3.33
2023-05-16T13:56:37.756Z,6.18
2023-05-16T14:00:05.663Z,5.07
2023-05-16T14:03:00.838Z,6.10
2023-05-16T14:06:02.236Z,5.88
2023-05-16T14:09:04.477Z,4.32
2023-05-16T14:12:07.079Z,5.00
2023-05-16T14:15:09.223Z,4.77
2023-05-16T14:18:10.782Z,3.90
2023-05-16T14:21:12.638Z,6.05
2023-05-16T14:24:14.830Z,6.65
2023-05-16T14:27:16.361Z,5.40
2023-05-16T14:30:17.901Z,4.40
2023-05-16T14:33:19.351Z,4.63
2023-05-16T14:36:20.801Z,3.87
2023-05-16T14:39:22.904Z,6.80
2023-05-16T14:42:24.366Z,6.03
2023-05-16T14:45:25.996Z,4.07
2023-05-16T14:48:27.677Z,4.65
2023-05-16T14:51:29.174Z,5.18
2023-05-16T14:54:31.300Z,5.20
2023-05-16T14:57:32.601Z,2.65
2023-05-16T15:00:33.965Z,3.73
2023-05-16T15:03:53.747Z,5.22
2023-05-16T15:06:56.512Z,4.80
2023-05-16T15:09:58.618Z,3.58
2023-05-16T15:12:59.980Z,4.25
2023-05-16T15:16:01.386Z,4.00
2023-05-16T15:19:03.098Z,3.92
2023-05-16T15:22:07.055Z,4.68
2023-05-16T15:25:10.344Z,4.85
2023-05-16T15:28:11.681Z,3.55
2023-05-16T15:31:13.488Z,3.60
2023-05-16T15:34:15.019Z,4.07
2023-05-16T15:37:17.184Z,3.58
2023-05-16T15:40:22.296Z,2.22
2023-05-16T15:43:26.357Z,6.70
2023-05-16T15:46:29.900Z,2.50
2023-05-16T15:49:31.401Z,3.08
2023-05-16T15:52:35.184Z,2.60
2023-05-16T15:55:38.478Z,2.65
2023-05-16T15:58:39.862Z,5.93
2023-05-16T16:01:41.397Z,2.70
2023-05-16T16:04:42.851Z,4.45
2023-05-16T16:07:44.635Z,3.40
2023-05-16T16:10:46.994Z,2.83
2023-05-16T16:13:48.718Z,4.20
2023-05-16T16:16:50.477Z,2.70
2023-05-16T16:19:52.190Z,8.85
2023-05-16T16:22:53.733Z,3.78
2023-05-16T16:25:55.842Z,4.72
2023-05-16T16:28:57.188Z,5.13
2023-05-16T16:31:58.830Z,2.63
2023-05-16T16:35:00.937Z,4.80
2023-05-16T16:38:07.105Z,5.35
2023-05-16T16:41:10.388Z,3.65
2023-05-16T16:44:13.133Z,2.83
2023-05-16T16:47:14.593Z,2.78
2023-05-16T16:50:16.032Z,3.45
2023-05-16T16:53:18.052Z,5.00
2023-05-16T16:56:20.907Z,3.80
2023-05-16T16:59:22.255Z,4.17
2023-05-16T17:02:23.640Z,6.65
2023-05-16T17:05:25.383Z,3.40
2023-05-16T17:08:26.886Z,3.65
2023-05-16T17:11:29.079Z,2.70
2023-05-16T17:14:30.783Z,5.70
2023-05-16T17:17:32.115Z,5.80
2023-05-16T17:20:33.709Z,3.50
2023-05-16T17:23:35.063Z,3.38
2023-05-16T17:26:37.158Z,4.65
2023-05-16T17:29:38.668Z,3.53
2023-05-16T17:32:40.100Z,3.97
2023-05-16T17:35:41.524Z,3.42
2023-05-16T17:38:42.843Z,4.65
2023-05-16T17:41:45.161Z,3.40
2023-05-16T17:44:46.739Z,3.67
2023-05-16T17:47:48.452Z,2.72
2023-05-16T17:50:49.863Z,4.18
2023-05-16T17:53:51.967Z,4.32
2023-05-16T17:56:54.496Z,5.20
2023-05-16T17:59:56.010Z,3.83
2023-05-16T18:02:57.577Z,5.93
2023-05-16T18:05:59.226Z,5.13
2023-05-16T18:09:01.121Z,5.22
2023-05-16T18:12:03.816Z,3.72
2023-05-16T18:15:06.422Z,4.53
2023-05-16T18:18:08.032Z,4.85
2023-05-16T18:21:09.492Z,5.18
2023-05-16T18:24:12.434Z,3.85
2023-05-16T18:27:15.401Z,5.03
2023-05-16T18:30:16.880Z,3.83
2023-05-16T18:33:18.296Z,2.75
2023-05-16T18:36:19.780Z,3.25
2023-05-16T18:39:21.310Z,5.65
2023-05-16T18:42:24.922Z,3.97
2023-05-16T18:45:26.585Z,2.47
2023-05-16T18:48:28.215Z,4.50
2023-05-16T18:51:30.150Z,4.60
2023-05-16T18:54:31.451Z,4.13
2023-05-16T18:57:34.125Z,3.83
2023-05-16T19:00:35.504Z,4.70
2023-05-16T19:03:36.969Z,5.47
2023-05-16T19:06:38.458Z,3.53
2023-05-16T19:09:39.768Z,4.90
2023-05-16T19:12:46.011Z,3.03
2023-05-16T19:15:47.340Z,3.33
2023-05-16T19:18:49.430Z,3.63
2023-05-16T19:21:51.130Z,2.25
2023-05-16T19:24:52.580Z,2.28
2023-05-16T19:27:54.751Z,3.10
2023-05-16T19:30:56.388Z,3.60
2023-05-16T19:33:57.855Z,2.73
2023-05-16T19:37:03.198Z,4.97
2023-05-16T19:40:05.881Z,4.65
2023-05-16T19:43:08.567Z,4.18
2023-05-16T19:46:10.586Z,4.13
2023-05-16T19:49:12.249Z,4.77
2023-05-16T19:52:14.246Z,3.00
2023-05-16T19:55:16.075Z,5.05
2023-05-16T19:58:18.508Z,3.55
2023-05-16T20:01:20.228Z,4.13
2023-05-16T20:04:22.150Z,4.33
2023-05-16T20:07:23.636Z,4.80
2023-05-16T20:10:24.969Z,3.00
2023-05-16T20:13:27.094Z,2.40
2023-05-16T20:16:28.460Z,5.57
2023-05-16T20:19:29.959Z,3.80
2023-05-16T20:22:31.457Z,1.90
2023-05-16T20:25:32.811Z,1.95
2023-05-16T20:28:34.942Z,1.73
2023-05-16T20:31:36.311Z,3.03
2023-05-16T20:34:40.287Z,3.60
2023-05-16T20:37:42.907Z,3.47
2023-05-16T20:40:44.373Z,2.47
2023-05-16T20:43:46.508Z,2.75
2023-05-16T20:46:47.855Z,2.67
2023-05-16T20:49:49.304Z,4.47
2023-05-16T20:52:50.701Z,2.47
2023-05-16T20:55:52.224Z,3.08
2023-05-16T20:58:54.443Z,1.85
2023-05-16T21:01:56.679Z,3.63
2023-05-16T21:05:02.234Z,2.50
2023-05-16T21:08:11.759Z,3.90
2023-05-16T21:11:13.226Z,2.97
2023-05-16T21:14:15.436Z,2.10
2023-05-16T21:17:16.852Z,3.47
2023-05-16T21:20:18.433Z,3.10
2023-05-16T21:23:20.178Z,2.92
2023-05-16T21:26:21.581Z,3.05
2023-05-16T21:29:23.682Z,3.60
2023-05-16T21:32:27.522Z,1.90
2023-05-16T21:35:29.331Z,3.87
2023-05-16T21:38:30.926Z,2.55
2023-05-16T21:41:32.402Z,2.92
2023-05-16T21:44:34.551Z,2.13
2023-05-16T21:47:36.085Z,3.33
2023-05-16T21:50:37.647Z,2.37
2023-05-16T21:53:39.004Z,2.38
2023-05-16T21:56:40.525Z,3.80
2023-05-16T21:59:42.466Z,3.55
2023-05-16T22:02:44.477Z,2.93
2023-05-16T22:05:46.387Z,2.70
2023-05-16T22:08:47.832Z,2.47
2023-05-16T22:11:49.199Z,3.22
2023-05-16T22:14:51.352Z,1.42
2023-05-16T22:17:52.736Z,2.80
2023-05-16T22:20:54.223Z,2.65
2023-05-16T22:23:55.602Z,3.05
2023-05-16T22:26:57.047Z,3.43
2023-05-16T22:29:59.039Z,2.85
2023-05-16T22:33:00.730Z,3.63
2023-05-16T22:36:02.644Z,2.30
2023-05-16T22:39:04.141Z,3.42
2023-05-16T22:42:06.111Z,3.23
2023-05-16T22:45:08.825Z,3.50
2023-05-16T22:48:10.435Z,3.40
2023-05-16T22:51:11.926Z,2.60
2023-05-16T22:54:13.411Z,3.08
2023-05-16T22:57:14.815Z,3.80
2023-05-16T23:00:22.089Z,3.75
2023-05-16T23:03:23.622Z,3.72
2023-05-16T23:06:25.161Z,3.45
2023-05-16T23:09:26.685Z,3.63
2023-05-16T23:12:28.118Z,2.00
2023-05-16T23:15:30.469Z,3.92
2023-05-16T23:18:32.156Z,3.95
2023-05-16T23:21:33.762Z,3.85
2023-05-16T23:24:35.076Z,3.03
2023-05-16T23:27:36.523Z,3.20
2023-05-16T23:30:38.641Z,2.88
2023-05-16T23:33:39.968Z,3.85
2023-05-16T23:36:41.306Z,3.35
2023-05-16T23:39:42.767Z,4.53
2023-05-16T23:42:44.362Z,4.13
2023-05-16T23:45:46.632Z,3.35
2023-05-16T23:48:48.194Z,4.87
2023-05-16T23:51:57.259Z,4.40
2023-05-16T23:54:59.625Z,3.53
2023-05-16T23:58:01.073Z,5.60
